Descanso, CA

10:58 PM PST on March 04, 2015 (GMT -0800)
Sherilton Valley | Change Station
CLOSE
Current Station
Personal Weather Station
Location: Descanso, CA
Elevation: 3264 ft
Nearby Weather Stations

Elev 3264 ft 32.90 °N, 116.62 °W | Updated 18 seconds ago

Clear
Clear
49.1 °F
Feels Like 49 °F
N
0.0
Wind Variable Wind from NW
Gusts 19.0 mph

Today
High -- | Low -- °F
--% Chance of Precip.
Yesterday
High -- | Low -- °F
Precip. -- in
6:10 AM 5:45 PM
Full, 100% visible
Pressure 30.11 in
Visibility -9999.0 miles
Clouds
Windchill 49 °F
Dew Point 18 °F
Humidity 29%
Rainfall in
Snow Depth Not available.
UV Not available.
Pollen 8.50 out of 12
Air Quality Not available.
Flu Activity Not available.
METAR KCZZ 050652Z AUTO 00000KT 02/M04 A3013 RMK AO1 SLP195 T00171039

More Conditions Fewer Conditions

Pressure 30.11 in
Visibility -9999.0 miles
Clouds
Windchill 49 °F
Dew Point 18 °F
Humidity 29%
Rainfall in
Snow Depth Not available.
UV Not available.
Pollen 8.50 out of 12
Air Quality Not available.
Flu Activity Not available.
METAR KCZZ 050652Z AUTO 00000KT 02/M04 A3013 RMK AO1 SLP195 T00171039

More Conditions Fewer Conditions

10-Day Weather Forecast

Almanac

Astronomy

Mar. 04, 2015 Rise Set
Actual Time
Civil Twilight
Nautical Twilight
Astronomical Twilight
Moon
Length of Visible Light
Length of Day
Tomorrow will be .
, % of the Moon is Illuminated

Today's Extremes

State Highs State Lows

Community

WunderPhotos

Upload Photos

1,802,689 photos uploaded!

WunderBlogs® & News

Nearby

Air Quality

  Air Quality AQ Index Pollutant
Not available.

Snow Depth

Station Depth Elevation

Earthquake Activity

City Distance Mag. Time & Date
Minimum magnitude displayed is 2.5.

Coastal Water Temperatures

Place Temperature

Nearby Weather Stations